createdAt,value
2023-05-19T00:01:18.828Z,82.99
2023-05-19T00:03:57.779Z,81.61
2023-05-19T00:06:31.882Z,84.30
2023-05-19T00:09:02.649Z,83.49
2023-05-19T00:11:31.939Z,83.85
2023-05-19T00:14:01.898Z,82.92
2023-05-19T00:16:32.047Z,83.11
2023-05-19T00:19:01.380Z,83.51
2023-05-19T00:21:32.399Z,83.85
2023-05-19T00:24:01.925Z,84.59
2023-05-19T00:26:30.757Z,82.69
2023-05-19T00:28:59.257Z,83.47
2023-05-19T00:31:27.862Z,83.30
2023-05-19T00:33:56.704Z,84.49
2023-05-19T00:36:25.849Z,81.67
2023-05-19T00:38:55.960Z,84.17
2023-05-19T00:41:24.708Z,84.78
2023-05-19T00:43:53.288Z,83.25
2023-05-19T00:46:23.306Z,85.40
2023-05-19T00:48:51.852Z,85.88
2023-05-19T00:51:20.530Z,83.63
2023-05-19T00:53:52.157Z,84.17
2023-05-19T00:56:22.855Z,85.70
2023-05-19T00:58:53.156Z,86.06
2023-05-19T01:01:22.503Z,86.23
2023-05-19T01:03:51.549Z,85.26
2023-05-19T01:06:20.934Z,85.61
2023-05-19T01:08:49.459Z,86.31
2023-05-19T01:11:17.976Z,86.06
2023-05-19T01:13:47.967Z,85.35
2023-05-19T01:16:25.018Z,84.05
2023-05-19T01:19:03.957Z,84.97
2023-05-19T01:22:13.507Z,86.05
2023-05-19T01:25:16.389Z,85.78
2023-05-19T01:28:14.094Z,86.43
2023-05-19T01:30:46.554Z,86.18
2023-05-19T01:33:16.801Z,85.12
2023-05-19T01:35:45.923Z,86.85
2023-05-19T01:38:17.789Z,85.48
2023-05-19T01:40:47.881Z,83.60
2023-05-19T01:43:22.567Z,85.05
2023-05-19T01:45:53.394Z,85.13
2023-05-19T01:48:22.353Z,84.40
2023-05-19T01:50:51.402Z,85.83
2023-05-19T01:53:20.082Z,87.68
2023-05-19T01:55:51.977Z,86.79
2023-05-19T01:58:31.314Z,87.58
2023-05-19T02:01:10.040Z,86.25
2023-05-19T02:04:03.724Z,87.42
2023-05-19T02:06:41.760Z,88.13
2023-05-19T02:09:17.758Z,88.34
2023-05-19T02:11:54.242Z,88.13
2023-05-19T02:14:31.833Z,88.63
2023-05-19T02:17:03.855Z,88.71
2023-05-19T02:19:34.855Z,87.46
2023-05-19T02:22:03.647Z,88.13
2023-05-19T02:24:32.314Z,89.07
2023-05-19T02:27:01.259Z,88.58
2023-05-19T02:29:29.868Z,89.31
2023-05-19T02:31:58.562Z,87.94
2023-05-19T02:34:28.756Z,86.99
2023-05-19T02:36:57.774Z,87.65
2023-05-19T02:39:26.510Z,87.79
2023-05-19T02:41:55.090Z,87.33
2023-05-19T02:44:23.678Z,86.66
2023-05-19T02:46:52.473Z,88.17
2023-05-19T02:49:21.019Z,89.98
2023-05-19T02:51:50.988Z,89.20
2023-05-19T02:54:19.563Z,88.56
2023-05-19T02:56:48.078Z,88.04
2023-05-19T02:59:16.646Z,88.57
2023-05-19T03:01:45.247Z,88.01
2023-05-19T03:04:14.108Z,86.98
2023-05-19T03:06:42.673Z,87.61
2023-05-19T03:09:13.503Z,88.48
2023-05-19T03:11:42.056Z,89.32
2023-05-19T03:14:10.632Z,89.43
2023-05-19T03:16:41.329Z,89.28
2023-05-19T03:19:10.547Z,89.50
2023-05-19T03:21:39.331Z,89.79
2023-05-19T03:24:08.418Z,89.42
2023-05-19T03:26:38.296Z,90.15
2023-05-19T03:29:07.432Z,89.32
2023-05-19T03:31:35.960Z,90.28
2023-05-19T03:34:04.518Z,90.37
2023-05-19T03:36:33.154Z,90.27
2023-05-19T03:39:01.884Z,89.79
2023-05-19T03:41:30.374Z,89.31
2023-05-19T03:44:00.678Z,88.04
2023-05-19T03:46:29.224Z,89.59
2023-05-19T03:48:57.838Z,89.99
2023-05-19T03:51:28.761Z,90.23
2023-05-19T03:53:57.499Z,89.51
2023-05-19T03:56:27.782Z,89.75
2023-05-19T03:58:56.324Z,90.19
2023-05-19T04:01:26.259Z,90.35
2023-05-19T04:03:55.161Z,89.99
2023-05-19T04:06:23.767Z,89.27
2023-05-19T04:11:41.676Z,89.76
2023-05-19T04:14:10.814Z,89.26
2023-05-19T04:16:42.003Z,90.27
2023-05-19T04:19:10.679Z,89.21
2023-05-19T04:21:39.320Z,89.45
2023-05-19T04:24:08.647Z,90.05
2023-05-19T04:26:38.725Z,90.12
2023-05-19T04:29:07.543Z,90.28
2023-05-19T04:31:36.546Z,89.51
2023-05-19T04:34:07.985Z,89.87
2023-05-19T04:36:36.734Z,90.76
2023-05-19T04:39:08.287Z,89.70
2023-05-19T04:41:40.614Z,90.29
2023-05-19T04:44:10.119Z,89.59
2023-05-19T04:46:38.649Z,90.00
2023-05-19T04:49:08.596Z,89.21
2023-05-19T04:51:41.336Z,88.84
2023-05-19T04:54:10.238Z,89.86
2023-05-19T04:56:38.904Z,88.97
2023-05-19T04:59:07.512Z,89.23
2023-05-19T05:01:40.332Z,88.73
2023-05-19T05:04:10.373Z,89.78
2023-05-19T05:06:41.428Z,88.34
2023-05-19T05:09:10.580Z,90.28
2023-05-19T05:11:40.002Z,88.23
2023-05-19T05:14:09.313Z,89.06
2023-05-19T05:16:38.773Z,89.52
2023-05-19T05:19:09.543Z,88.86
2023-05-19T05:21:39.055Z,89.47
2023-05-19T05:24:09.169Z,88.89
2023-05-19T05:26:38.277Z,86.86
2023-05-19T05:29:06.979Z,88.57
2023-05-19T05:31:35.552Z,87.85
2023-05-19T05:34:04.237Z,87.48
2023-05-19T05:36:35.106Z,87.03
2023-05-19T05:39:04.298Z,86.40
2023-05-19T05:41:35.575Z,86.88
2023-05-19T05:44:04.515Z,87.17
2023-05-19T05:46:33.852Z,86.35
2023-05-19T05:49:03.152Z,86.37
2023-05-19T05:51:34.202Z,85.80
2023-05-19T05:54:04.205Z,82.20
2023-05-19T05:56:33.888Z,83.71
2023-05-19T05:59:03.445Z,82.23
2023-05-19T06:01:33.676Z,82.00
2023-05-19T06:04:04.044Z,81.60
2023-05-19T06:06:34.166Z,80.92
2023-05-19T06:09:02.958Z,81.04
2023-05-19T06:11:31.920Z,81.22
2023-05-19T06:14:00.663Z,80.72
2023-05-19T06:16:29.292Z,80.40
2023-05-19T06:18:59.049Z,80.07
2023-05-19T06:21:27.722Z,79.47
2023-05-19T06:23:57.604Z,80.06
2023-05-19T06:26:27.159Z,78.20
2023-05-19T06:28:55.736Z,78.67
2023-05-19T06:31:26.593Z,78.98
2023-05-19T06:33:55.624Z,79.38
2023-05-19T06:36:24.336Z,78.79
2023-05-19T06:38:52.994Z,77.50
2023-05-19T06:41:22.976Z,77.77
2023-05-19T06:43:51.713Z,76.83
2023-05-19T06:46:20.224Z,76.22
2023-05-19T06:48:48.759Z,77.04
2023-05-19T06:51:21.826Z,76.52
2023-05-19T06:53:50.471Z,75.36
2023-05-19T06:56:19.208Z,74.92
2023-05-19T06:58:49.146Z,74.56
2023-05-19T07:01:17.765Z,74.60
2023-05-19T07:03:46.947Z,73.30
2023-05-19T07:06:16.180Z,71.04
2023-05-19T07:08:44.922Z,71.32
2023-05-19T07:11:14.242Z,72.32
2023-05-19T07:13:42.758Z,71.04
2023-05-19T07:16:12.686Z,72.02
2023-05-19T07:18:41.515Z,70.76
2023-05-19T07:21:10.061Z,70.99
2023-05-19T07:23:38.566Z,69.89
2023-05-19T07:26:07.125Z,69.78
2023-05-19T07:28:35.768Z,69.91
2023-05-19T07:31:04.365Z,71.75
2023-05-19T07:33:34.233Z,69.49
2023-05-19T07:36:02.821Z,69.96
2023-05-19T07:38:34.613Z,69.17
2023-05-19T07:41:04.581Z,70.00
2023-05-19T07:43:33.209Z,71.01
2023-05-19T07:46:02.355Z,71.88
2023-05-19T07:48:30.995Z,70.55
2023-05-19T07:51:01.000Z,69.90
2023-05-19T07:53:29.585Z,68.67
2023-05-19T07:55:58.808Z,71.51
2023-05-19T07:58:27.830Z,70.21
2023-05-19T08:00:59.113Z,70.90
2023-05-19T08:03:28.284Z,70.41
2023-05-19T08:05:57.642Z,70.19
2023-05-19T08:08:27.586Z,69.13
2023-05-19T08:10:56.144Z,69.09
2023-05-19T08:13:24.691Z,70.25
2023-05-19T08:15:54.491Z,69.04
2023-05-19T08:18:23.019Z,68.75
2023-05-19T08:20:51.541Z,69.96
2023-05-19T08:23:20.773Z,68.31
2023-05-19T08:25:50.786Z,68.82
2023-05-19T08:28:19.321Z,70.03
2023-05-19T08:30:47.876Z,68.60
2023-05-19T08:33:16.446Z,66.05
2023-05-19T08:35:45.354Z,66.75
2023-05-19T08:38:14.349Z,65.86
2023-05-19T08:40:44.139Z,65.81
2023-05-19T08:43:14.443Z,65.71
2023-05-19T08:45:46.540Z,65.99
2023-05-19T08:48:16.314Z,63.20
2023-05-19T08:50:55.061Z,65.01
2023-05-19T08:53:34.767Z,66.80
2023-05-19T08:56:11.012Z,65.19
2023-05-19T08:58:44.141Z,61.50
2023-05-19T09:01:17.032Z,62.50
2023-05-19T09:03:50.683Z,63.99
2023-05-19T09:06:19.428Z,62.79
2023-05-19T09:08:48.531Z,62.68
2023-05-19T09:11:17.168Z,62.29
2023-05-19T09:13:47.134Z,62.03
2023-05-19T09:16:15.846Z,63.74
2023-05-19T09:18:56.697Z,66.66
2023-05-19T09:21:31.625Z,65.14
2023-05-19T09:24:05.467Z,66.22
2023-05-19T09:26:39.924Z,66.08
2023-05-19T09:29:18.609Z,64.52
2023-05-19T09:31:51.938Z,64.82
2023-05-19T09:34:21.244Z,62.76
2023-05-19T09:36:52.007Z,64.13
2023-05-19T09:39:22.738Z,65.65
2023-05-19T09:41:53.679Z,63.25
2023-05-19T09:44:29.892Z,66.28
2023-05-19T09:47:00.020Z,67.22
2023-05-19T09:49:31.410Z,63.92
2023-05-19T09:52:03.479Z,65.21
2023-05-19T09:54:32.652Z,66.03
2023-05-19T09:57:03.981Z,68.03
2023-05-19T09:59:34.800Z,67.06
2023-05-19T10:02:03.678Z,67.58
2023-05-19T10:04:32.716Z,67.33
2023-05-19T10:07:05.756Z,67.67
2023-05-19T10:09:35.622Z,65.74
2023-05-19T10:12:05.570Z,65.26
2023-05-19T10:14:35.575Z,65.29
2023-05-19T10:17:04.384Z,66.27
2023-05-19T10:19:33.246Z,66.08
2023-05-19T10:22:01.828Z,66.05
2023-05-19T10:24:30.338Z,66.21
2023-05-19T10:27:06.060Z,66.13
2023-05-19T10:29:39.556Z,66.93
2023-05-19T10:32:13.358Z,68.22
2023-05-19T10:35:20.945Z,66.87
2023-05-19T10:38:00.425Z,67.04
2023-05-19T10:40:34.395Z,68.55
2023-05-19T10:43:18.007Z,68.75
2023-05-19T10:45:52.719Z,67.84
2023-05-19T10:48:22.362Z,69.81
2023-05-19T10:50:55.136Z,69.63
2023-05-19T10:53:23.777Z,66.25
2023-05-19T10:55:53.847Z,69.52
2023-05-19T10:58:50.801Z,68.42
2023-05-19T11:01:25.028Z,69.43
2023-05-19T11:03:55.116Z,68.72
2023-05-19T11:06:29.084Z,67.34
2023-05-19T11:09:05.137Z,69.42
2023-05-19T11:11:48.259Z,67.06
2023-05-19T11:14:19.165Z,67.36
2023-05-19T11:16:54.667Z,66.91
2023-05-19T11:19:29.126Z,67.40
2023-05-19T11:21:59.417Z,68.26
2023-05-19T11:24:40.206Z,66.96
2023-05-19T11:27:38.352Z,69.68
2023-05-19T11:30:15.189Z,70.45
2023-05-19T11:32:49.141Z,66.46
2023-05-19T11:35:21.481Z,68.66
2023-05-19T11:37:52.439Z,66.71
2023-05-19T11:40:23.031Z,69.63
2023-05-19T11:42:51.624Z,68.49
2023-05-19T11:45:27.136Z,66.86
2023-05-19T11:48:02.003Z,67.15
2023-05-19T11:50:33.376Z,66.55
2023-05-19T11:53:03.071Z,67.61
2023-05-19T11:55:32.358Z,66.54
2023-05-19T11:58:05.450Z,68.25
2023-05-19T12:00:41.120Z,66.58
2023-05-19T12:03:11.871Z,67.98
2023-05-19T12:05:45.735Z,65.18
2023-05-19T12:08:15.167Z,66.05
2023-05-19T12:10:43.762Z,65.48
2023-05-19T12:13:12.712Z,66.40
2023-05-19T12:15:41.235Z,67.56
2023-05-19T12:18:11.373Z,66.53
2023-05-19T12:20:40.059Z,65.74
2023-05-19T12:23:08.729Z,65.48
2023-05-19T12:25:38.482Z,65.44
2023-05-19T12:28:07.378Z,68.58
2023-05-19T12:30:36.037Z,67.77
2023-05-19T12:33:05.005Z,67.51
2023-05-19T12:35:36.285Z,67.61
2023-05-19T12:38:05.901Z,68.62
2023-05-19T12:40:36.162Z,68.04
2023-05-19T12:43:05.649Z,68.90
2023-05-19T12:45:36.164Z,69.26
2023-05-19T12:48:06.817Z,70.74
2023-05-19T12:50:39.288Z,70.76
2023-05-19T12:53:10.606Z,68.60
2023-05-19T12:55:42.838Z,69.57
2023-05-19T12:58:12.590Z,66.91
2023-05-19T13:00:47.610Z,69.82
2023-05-19T13:03:19.039Z,70.65
2023-05-19T13:05:51.795Z,71.21
2023-05-19T13:08:21.910Z,71.05
2023-05-19T13:10:51.172Z,69.20
2023-05-19T13:13:20.166Z,70.39
2023-05-19T13:15:49.714Z,69.64
2023-05-19T13:18:19.075Z,69.86
2023-05-19T13:20:50.348Z,68.98
2023-05-19T13:23:19.397Z,69.21
2023-05-19T13:25:48.089Z,69.13
2023-05-19T13:28:16.625Z,67.58
2023-05-19T13:30:46.324Z,69.54
2023-05-19T13:33:14.974Z,68.25
2023-05-19T13:35:43.573Z,69.12
2023-05-19T13:38:13.482Z,71.18
2023-05-19T13:40:42.025Z,70.24
2023-05-19T13:43:10.590Z,70.13
2023-05-19T13:45:39.286Z,70.21
2023-05-19T13:48:08.635Z,69.33
2023-05-19T13:50:37.210Z,70.04
2023-05-19T13:53:05.856Z,71.77
2023-05-19T13:55:35.777Z,69.86
2023-05-19T13:58:04.596Z,69.72
2023-05-19T14:00:33.584Z,70.44
2023-05-19T14:03:02.354Z,70.68
2023-05-19T14:05:31.226Z,70.96
2023-05-19T14:08:01.189Z,70.10
2023-05-19T14:10:29.766Z,69.37
2023-05-19T14:15:34.296Z,68.74
2023-05-19T14:18:04.790Z,69.90
2023-05-19T14:20:34.198Z,71.55
2023-05-19T14:23:03.414Z,71.45
2023-05-19T14:25:31.993Z,70.61
2023-05-19T14:28:02.684Z,71.00
2023-05-19T14:30:31.250Z,71.58
2023-05-19T14:33:00.248Z,69.96
2023-05-19T14:35:28.962Z,73.13
2023-05-19T14:37:57.717Z,72.41
2023-05-19T14:40:26.221Z,71.46
2023-05-19T14:42:54.828Z,72.84
2023-05-19T14:45:24.853Z,72.02
2023-05-19T14:47:53.369Z,73.04
2023-05-19T14:50:22.208Z,72.38
2023-05-19T14:52:50.723Z,71.64
2023-05-19T14:55:19.420Z,71.98
2023-05-19T14:57:48.029Z,73.47
2023-05-19T15:00:17.012Z,71.92
2023-05-19T15:02:46.994Z,72.37
2023-05-19T15:05:16.220Z,72.30
2023-05-19T15:07:44.806Z,71.82
2023-05-19T15:10:13.601Z,71.90
2023-05-19T15:12:42.081Z,71.62
2023-05-19T15:15:11.927Z,72.42
2023-05-19T15:17:41.089Z,71.66
2023-05-19T15:20:12.869Z,70.65
2023-05-19T15:22:41.429Z,71.29
2023-05-19T15:25:11.553Z,72.94
2023-05-19T15:27:40.188Z,71.23
2023-05-19T15:30:09.917Z,70.86
2023-05-19T15:32:38.731Z,70.84
2023-05-19T15:35:08.926Z,71.10
2023-05-19T15:37:39.048Z,71.32
2023-05-19T15:40:09.635Z,71.75
2023-05-19T15:42:38.444Z,72.33
2023-05-19T15:45:09.234Z,71.61
2023-05-19T15:47:39.237Z,73.07
2023-05-19T15:50:09.879Z,70.70
2023-05-19T15:52:40.047Z,70.37
2023-05-19T15:55:10.494Z,72.41
2023-05-19T15:57:39.423Z,71.33
2023-05-19T16:00:09.800Z,72.30
2023-05-19T16:02:38.704Z,71.44
2023-05-19T16:05:07.767Z,71.69
2023-05-19T16:07:36.583Z,72.85
2023-05-19T16:10:07.834Z,72.27
2023-05-19T16:12:36.893Z,72.57
2023-05-19T16:15:06.272Z,71.66
2023-05-19T16:17:35.660Z,72.39
2023-05-19T16:20:04.444Z,73.92
2023-05-19T16:22:33.218Z,72.38
2023-05-19T16:25:01.759Z,72.05
2023-05-19T16:27:31.916Z,71.45
2023-05-19T16:30:01.249Z,73.47
2023-05-19T16:32:30.178Z,74.12
2023-05-19T16:34:58.685Z,73.12
2023-05-19T16:37:27.449Z,74.66
2023-05-19T16:39:56.023Z,72.07
2023-05-19T16:42:24.999Z,73.93
2023-05-19T16:44:55.142Z,71.65
2023-05-19T16:47:23.927Z,71.07
2023-05-19T16:49:52.458Z,73.60
2023-05-19T16:52:21.300Z,72.24
2023-05-19T16:54:49.846Z,72.25
2023-05-19T16:57:18.377Z,74.10
2023-05-19T16:59:46.952Z,73.75
2023-05-19T17:02:16.896Z,73.89
2023-05-19T17:04:45.615Z,72.25
2023-05-19T17:07:15.776Z,72.92
2023-05-19T17:09:44.492Z,75.60
2023-05-19T17:12:13.427Z,73.70
2023-05-19T17:14:43.600Z,74.58
2023-05-19T17:17:12.236Z,74.26
2023-05-19T17:19:42.683Z,74.06
2023-05-19T17:22:11.315Z,73.38
2023-05-19T17:24:39.836Z,72.57
2023-05-19T17:27:08.416Z,73.99
2023-05-19T17:29:37.121Z,73.79
2023-05-19T17:32:06.943Z,73.43
2023-05-19T17:34:35.596Z,73.43
2023-05-19T17:37:06.038Z,74.82
2023-05-19T17:39:34.530Z,76.53
2023-05-19T17:42:03.104Z,75.94
2023-05-19T17:44:31.622Z,76.33
2023-05-19T17:47:01.664Z,74.93
2023-05-19T17:49:30.177Z,75.90
2023-05-19T17:51:59.474Z,75.02
2023-05-19T17:54:30.319Z,75.29
2023-05-19T17:57:03.423Z,76.53
2023-05-19T17:59:32.849Z,75.46
2023-05-19T18:02:02.159Z,75.22
2023-05-19T18:04:31.679Z,75.51
2023-05-19T18:07:00.928Z,76.29
2023-05-19T18:09:33.798Z,76.25
2023-05-19T18:12:02.619Z,75.21
2023-05-19T18:14:31.366Z,74.65
2023-05-19T18:17:00.134Z,74.97
2023-05-19T18:19:28.762Z,76.49
2023-05-19T18:21:57.611Z,76.45
2023-05-19T18:24:26.364Z,76.81
2023-05-19T18:26:56.531Z,77.25
2023-05-19T18:29:25.094Z,77.32
2023-05-19T18:31:53.900Z,78.20
2023-05-19T18:34:22.441Z,77.78
2023-05-19T18:36:51.023Z,76.86
2023-05-19T18:39:19.809Z,78.15
2023-05-19T18:41:48.544Z,78.04
2023-05-19T18:44:18.454Z,77.79
2023-05-19T18:46:47.164Z,78.73
2023-05-19T18:49:15.787Z,76.72
2023-05-19T18:51:44.504Z,78.11
2023-05-19T18:54:13.016Z,78.66
2023-05-19T18:56:41.959Z,78.60
2023-05-19T18:59:11.516Z,78.84
2023-05-19T19:01:41.727Z,79.08
2023-05-19T19:04:10.357Z,77.86
2023-05-19T19:06:39.143Z,76.89
2023-05-19T19:09:07.971Z,79.92
2023-05-19T19:11:36.482Z,79.30
2023-05-19T19:14:05.157Z,79.32
2023-05-19T19:16:34.076Z,79.73
2023-05-19T19:19:04.189Z,78.73
2023-05-19T19:21:32.733Z,78.39
2023-05-19T19:24:02.140Z,79.66
2023-05-19T19:26:30.655Z,79.56
2023-05-19T19:28:59.241Z,79.88
2023-05-19T19:31:28.860Z,80.88
2023-05-19T19:34:00.322Z,82.82
2023-05-19T19:36:30.455Z,81.68
2023-05-19T19:38:58.971Z,82.41
2023-05-19T19:41:29.817Z,80.73
2023-05-19T19:43:58.367Z,79.36
2023-05-19T19:46:26.944Z,81.42
2023-05-19T19:48:59.296Z,81.42
2023-05-19T19:51:29.733Z,81.27
2023-05-19T19:53:58.525Z,80.56
2023-05-19T19:56:27.763Z,81.42
2023-05-19T19:58:59.154Z,80.81
2023-05-19T20:01:28.411Z,79.64
2023-05-19T20:03:57.543Z,79.49
2023-05-19T20:06:26.162Z,79.34
2023-05-19T20:08:56.122Z,80.41
2023-05-19T20:11:26.853Z,80.83
2023-05-19T20:13:55.482Z,80.88
2023-05-19T20:16:24.680Z,81.32
2023-05-19T20:18:53.276Z,82.78
2023-05-19T20:21:22.071Z,82.31
2023-05-19T20:23:51.204Z,82.58
2023-05-19T20:26:22.564Z,84.06
2023-05-19T20:28:51.120Z,83.03
2023-05-19T20:31:21.722Z,83.12
2023-05-19T20:33:50.279Z,81.01
2023-05-19T20:36:21.826Z,82.06
2023-05-19T20:38:50.550Z,81.95
2023-05-19T20:41:20.791Z,83.40
2023-05-19T20:43:49.333Z,83.21
2023-05-19T20:46:18.209Z,82.62
2023-05-19T20:48:46.732Z,83.50
2023-05-19T20:51:15.469Z,83.20
2023-05-19T20:53:44.054Z,83.92
2023-05-19T20:56:13.333Z,83.56
2023-05-19T20:58:43.427Z,83.81
2023-05-19T21:01:11.985Z,84.36
2023-05-19T21:03:40.512Z,84.81
2023-05-19T21:06:09.066Z,84.75
2023-05-19T21:08:37.771Z,83.65
2023-05-19T21:11:06.370Z,84.22
2023-05-19T21:13:39.346Z,85.07
2023-05-19T21:16:09.551Z,84.62
2023-05-19T21:18:38.064Z,85.29
2023-05-19T21:21:06.765Z,84.54
2023-05-19T21:23:35.332Z,83.29
2023-05-19T21:26:05.073Z,83.80
2023-05-19T21:28:33.841Z,84.48
2023-05-19T21:31:02.418Z,83.52
2023-05-19T21:33:32.374Z,84.76
2023-05-19T21:36:01.607Z,84.91
2023-05-19T21:38:30.676Z,84.85
2023-05-19T21:40:59.221Z,84.74
2023-05-19T21:43:27.761Z,84.70
2023-05-19T21:45:56.508Z,84.83
2023-05-19T21:48:25.202Z,84.43
2023-05-19T21:50:56.217Z,84.79
2023-05-19T21:53:25.629Z,85.61
2023-05-19T21:55:54.244Z,84.49
2023-05-19T21:58:22.881Z,86.07
2023-05-19T22:00:51.658Z,86.35
2023-05-19T22:03:20.635Z,84.64
2023-05-19T22:05:52.821Z,84.87
2023-05-19T22:08:23.484Z,86.11
2023-05-19T22:10:52.855Z,86.46
2023-05-19T22:13:22.712Z,86.17
2023-05-19T22:15:51.277Z,87.15
2023-05-19T22:18:19.921Z,86.08
2023-05-19T22:20:48.420Z,86.34
2023-05-19T22:23:16.962Z,84.10
2023-05-19T22:25:47.261Z,88.44
2023-05-19T22:28:15.994Z,87.89
2023-05-19T22:30:44.885Z,86.97
2023-05-19T22:33:13.896Z,86.66
2023-05-19T22:35:43.104Z,86.00
2023-05-19T22:38:11.899Z,86.03
2023-05-19T22:40:40.722Z,86.09
2023-05-19T22:43:10.639Z,87.59
2023-05-19T22:45:39.227Z,86.80
2023-05-19T22:48:08.335Z,87.30
2023-05-19T22:50:37.140Z,88.08
2023-05-19T22:53:05.675Z,87.21
2023-05-19T22:55:34.337Z,88.31
2023-05-19T22:58:03.407Z,88.33
2023-05-19T23:00:33.793Z,88.24
2023-05-19T23:03:02.605Z,88.29
2023-05-19T23:05:31.233Z,86.64
2023-05-19T23:07:59.832Z,87.06
2023-05-19T23:10:28.638Z,86.61
2023-05-19T23:12:57.136Z,86.99
2023-05-19T23:15:25.845Z,85.42
2023-05-19T23:17:56.005Z,86.05
2023-05-19T23:20:24.550Z,86.85
2023-05-19T23:22:53.262Z,86.46
2023-05-19T23:25:21.787Z,86.52
2023-05-19T23:27:50.289Z,86.33
2023-05-19T23:30:19.168Z,86.54
2023-05-19T23:32:47.681Z,86.50
2023-05-19T23:35:18.780Z,86.12
2023-05-19T23:37:47.281Z,86.41
2023-05-19T23:40:16.908Z,85.98
2023-05-19T23:42:45.681Z,85.84
2023-05-19T23:45:15.400Z,84.87
2023-05-19T23:47:44.178Z,86.24
2023-05-19T23:50:12.931Z,87.54
2023-05-19T23:52:42.827Z,87.35
2023-05-19T23:55:13.241Z,87.20
2023-05-19T23:57:42.000Z,86.72
